Lackland Air Force Base (Kelly Field Annex) Airport
KSKF : now visible

Airfield :











YOU CAN JOIN US ON...

 
LOGIN :

Register | Disclaimer

   EN    FR    IT 

 









Legend :    VFR   Marginal VFR   IFR   Intensive IFR   Very Intensive IFR
Visi :
Ceiling :
>= 8 km
>= 3000ft
5 to 8 km
1000 to 3000 ft
1500m to 5 km
500 to 1000 ft
800 to 1500m
200 to 500 ft
< 800m
< 200 ft
Symbols :   Thunderstorms  Fog  Heavy snow  Heavy precipitations  Wind > 20 kt






- Airport Elevation : 691 ft


KSKF - Lackland Air Force Base (Kelly Field Annex)

CURRENT METAR :
  • 220536Z AUTO 11009KT 10SM SCT022 BKN028 12/07 A3021 RMK AO2 CIG 021 RWY34 SLPNO $

EXPIRED METARs :
  • 220456Z AUTO 13012KT 10SM BKN028 13/07 A3021 RMK AO2 CIG 027 RWY34 SLPNO T01250072 $
  • 220356Z AUTO 14014KT 10SM BKN029 13/07 A3023 RMK AO2 CIG 028 RWY34 SLPNO T01300070 $
  • 220256Z AUTO 14015G23KT 10SM OVC050 14/07 A3023 RMK AO2 SLPNO T01350066 $

TAF TAF KSKF
Valid from the 22 at 02:00 until the 23 at 08:00 UTC


220200Z 2202/2308 13014KT 9999 FEW020 OVC040 QNH3020INS
TEMPO 2202/2205 15020G26KT
BECMG 2206/2207 16012KT 8000 -RA BR FEW006 OVC020 QNH3010INS
BECMG 2209/2210 17009KT 4800 -RA BR OVC006 QNH3002INS
TEMPO 2209/2213 2400 RA BR
BECMG 2220/2221 19010KT 9999 VCSH OVC007 QNH2990INS
BECMG 2300/2301 20005KT 9999 NSW OVC009 QNH2992INS TX17/2220Z TN11/2212Z



MET'MAP, your aeronautical weather chart ! - Copyright ORBIFLY December 2007 - Disclaimer

ORBIFLY MET'MAP TEAM :

Programming & Development : Alexandra Zaïnal
Concept & original design : Baudouin d'Aumeries
Assistance for programming : Marc-Olivier Méhu
Technical & hardware support : Manuel Goepfert

Contact : metmap@orbifly.com




SOURCES & CREDITS :

   NOAA       Earth
Advisory